Terminal Aerodrome Forecast
Issued by NWS Wilmington, NC

Home | Current Version | Previous Version | Text Only | Print | Product List | Glossary On
Versions: 1 2 3 4 5 6 7 8 9 10 11 12 13 14 15 16 17 18 19 20 21 22 23 24 25
000
FTUS42 KILM 010815 AAB
TAFMYR
TAF AMD
KMYR 010815Z 0108/0206 15005KT P6SM SCT025 BKN035 BKN050
     FM011000 17006KT P6SM OVC008
     FM011500 17010KT P6SM BKN050
     FM011800 18011KT P6SM OVC025
     FM012200 19013KT P6SM VCSH SCT035 BKN050
     FM020000 19009KT P6SM BKN250
      AMD LTD TO CLD VIS AND WIND TIL 011100=

USA.gov is the U.S. government's official web portal to all federal, state and local government web resources and services.